sensor_id;sensor_type;location;lat;lon;timestamp;P1;durP1;ratioP1;P2;durP2;ratioP2
25752;SDS011;13600;50.816;4.416;2022-08-21T00:02:25;9.65;;;3.47;;
25752;SDS011;13600;50.816;4.416;2022-08-21T00:04:52;7.90;;;2.95;;
25752;SDS011;13600;50.816;4.416;2022-08-21T00:07:19;11.60;;;3.33;;
25752;SDS011;13600;50.816;4.416;2022-08-21T00:09:45;6.80;;;3.30;;
25752;SDS011;13600;50.816;4.416;2022-08-21T00:12:11;14.13;;;3.22;;
25752;SDS011;13600;50.816;4.416;2022-08-21T00:14:38;12.35;;;4.15;;
25752;SDS011;13600;50.816;4.416;2022-08-21T00:17:04;12.30;;;3.25;;
25752;SDS011;13600;50.816;4.416;2022-08-21T00:19:30;7.78;;;2.97;;
25752;SDS011;13600;50.816;4.416;2022-08-21T00:21:56;12.43;;;3.70;;
25752;SDS011;13600;50.816;4.416;2022-08-21T00:24:22;6.50;;;2.65;;
25752;SDS011;13600;50.816;4.416;2022-08-21T00:26:48;8.20;;;3.28;;
25752;SDS011;13600;50.816;4.416;2022-08-21T00:29:14;11.57;;;3.05;;
25752;SDS011;13600;50.816;4.416;2022-08-21T00:31:41;8.73;;;2.78;;
25752;SDS011;13600;50.816;4.416;2022-08-21T00:34:08;9.23;;;3.35;;
25752;SDS011;13600;50.816;4.416;2022-08-21T00:36:34;8.98;;;3.00;;
25752;SDS011;13600;50.816;4.416;2022-08-21T00:39:00;9.25;;;3.08;;
25752;SDS011;13600;50.816;4.416;2022-08-21T00:41:27;9.50;;;3.30;;
25752;SDS011;13600;50.816;4.416;2022-08-21T00:43:53;12.77;;;2.90;;
25752;SDS011;13600;50.816;4.416;2022-08-21T00:46:20;9.82;;;3.03;;
25752;SDS011;13600;50.816;4.416;2022-08-21T00:48:46;13.73;;;3.33;;
25752;SDS011;13600;50.816;4.416;2022-08-21T00:51:22;6.88;;;2.90;;
25752;SDS011;13600;50.816;4.416;2022-08-21T00:53:55;6.88;;;2.75;;
25752;SDS011;13600;50.816;4.416;2022-08-21T00:56:24;6.53;;;3.00;;
25752;SDS011;13600;50.816;4.416;2022-08-21T00:58:50;9.52;;;3.30;;
25752;SDS011;13600;50.816;4.416;2022-08-21T01:01:19;9.32;;;2.65;;
25752;SDS011;13600;50.816;4.416;2022-08-21T01:03:45;11.10;;;2.95;;
25752;SDS011;13600;50.816;4.416;2022-08-21T01:06:11;13.82;;;3.60;;
25752;SDS011;13600;50.816;4.416;2022-08-21T01:08:38;12.75;;;3.85;;
25752;SDS011;13600;50.816;4.416;2022-08-21T01:11:04;8.77;;;3.70;;
25752;SDS011;13600;50.816;4.416;2022-08-21T01:13:34;8.40;;;3.17;;
25752;SDS011;13600;50.816;4.416;2022-08-21T01:16:02;8.63;;;4.47;;
25752;SDS011;13600;50.816;4.416;2022-08-21T01:18:30;11.10;;;4.28;;
25752;SDS011;13600;50.816;4.416;2022-08-21T01:23:35;13.27;;;2.80;;
25752;SDS011;13600;50.816;4.416;2022-08-21T01:26:03;6.90;;;2.90;;
25752;SDS011;13600;50.816;4.416;2022-08-21T01:28:30;10.27;;;2.67;;
25752;SDS011;13600;50.816;4.416;2022-08-21T01:31:02;7.18;;;2.42;;
25752;SDS011;13600;50.816;4.416;2022-08-21T01:33:29;7.30;;;2.97;;
25752;SDS011;13600;50.816;4.416;2022-08-21T01:35:55;9.13;;;2.80;;
25752;SDS011;13600;50.816;4.416;2022-08-21T01:38:21;9.85;;;2.78;;
25752;SDS011;13600;50.816;4.416;2022-08-21T01:40:47;13.07;;;3.10;;
25752;SDS011;13600;50.816;4.416;2022-08-21T01:43:12;10.20;;;2.42;;
25752;SDS011;13600;50.816;4.416;2022-08-21T01:45:38;19.05;;;3.15;;
25752;SDS011;13600;50.816;4.416;2022-08-21T01:48:04;8.30;;;2.55;;
25752;SDS011;13600;50.816;4.416;2022-08-21T01:50:29;11.15;;;2.90;;
25752;SDS011;13600;50.816;4.416;2022-08-21T01:52:55;8.80;;;2.78;;
25752;SDS011;13600;50.816;4.416;2022-08-21T01:55:21;9.05;;;2.78;;
25752;SDS011;13600;50.816;4.416;2022-08-21T01:57:47;9.82;;;2.85;;
25752;SDS011;13600;50.816;4.416;2022-08-21T02:00:15;6.80;;;2.38;;
25752;SDS011;13600;50.816;4.416;2022-08-21T02:02:43;7.70;;;2.53;;
25752;SDS011;13600;50.816;4.416;2022-08-21T02:05:10;7.15;;;2.40;;
25752;SDS011;13600;50.816;4.416;2022-08-21T02:07:38;8.93;;;2.40;;
25752;SDS011;13600;50.816;4.416;2022-08-21T02:10:07;9.52;;;2.72;;
25752;SDS011;13600;50.816;4.416;2022-08-21T02:12:34;11.00;;;3.10;;
25752;SDS011;13600;50.816;4.416;2022-08-21T02:14:59;11.18;;;3.00;;
25752;SDS011;13600;50.816;4.416;2022-08-21T02:17:25;7.75;;;2.50;;
25752;SDS011;13600;50.816;4.416;2022-08-21T02:19:51;14.15;;;2.33;;
25752;SDS011;13600;50.816;4.416;2022-08-21T02:22:17;9.45;;;3.03;;
25752;SDS011;13600;50.816;4.416;2022-08-21T02:24:42;10.25;;;2.33;;
25752;SDS011;13600;50.816;4.416;2022-08-21T02:27:08;7.20;;;2.30;;
25752;SDS011;13600;50.816;4.416;2022-08-21T02:29:34;7.78;;;2.50;;
25752;SDS011;13600;50.816;4.416;2022-08-21T02:32:00;8.07;;;2.70;;
25752;SDS011;13600;50.816;4.416;2022-08-21T02:34:25;11.23;;;2.42;;
25752;SDS011;13600;50.816;4.416;2022-08-21T02:36:51;9.32;;;2.60;;
25752;SDS011;13600;50.816;4.416;2022-08-21T02:39:17;7.97;;;2.28;;
25752;SDS011;13600;50.816;4.416;2022-08-21T02:41:42;8.75;;;2.90;;
25752;SDS011;13600;50.816;4.416;2022-08-21T02:44:08;8.40;;;2.80;;
25752;SDS011;13600;50.816;4.416;2022-08-21T02:46:34;10.38;;;2.88;;
25752;SDS011;13600;50.816;4.416;2022-08-21T02:48:59;7.13;;;2.35;;
25752;SDS011;13600;50.816;4.416;2022-08-21T02:51:25;6.38;;;2.40;;
25752;SDS011;13600;50.816;4.416;2022-08-21T02:53:52;20.23;;;3.03;;
25752;SDS011;13600;50.816;4.416;2022-08-21T02:56:19;9.07;;;2.47;;
25752;SDS011;13600;50.816;4.416;2022-08-21T02:58:47;10.18;;;2.63;;
25752;SDS011;13600;50.816;4.416;2022-08-21T03:01:16;10.50;;;2.22;;
25752;SDS011;13600;50.816;4.416;2022-08-21T03:03:43;10.63;;;2.78;;
25752;SDS011;13600;50.816;4.416;2022-08-21T03:06:10;5.50;;;2.50;;
25752;SDS011;13600;50.816;4.416;2022-08-21T03:08:38;8.32;;;2.38;;
25752;SDS011;13600;50.816;4.416;2022-08-21T03:11:04;9.43;;;2.15;;
25752;SDS011;13600;50.816;4.416;2022-08-21T03:13:31;15.18;;;2.88;;
25752;SDS011;13600;50.816;4.416;2022-08-21T03:15:57;8.52;;;2.22;;
25752;SDS011;13600;50.816;4.416;2022-08-21T03:18:23;8.15;;;2.83;;
25752;SDS011;13600;50.816;4.416;2022-08-21T03:20:49;8.85;;;2.25;;
25752;SDS011;13600;50.816;4.416;2022-08-21T03:23:16;12.50;;;2.15;;
25752;SDS011;13600;50.816;4.416;2022-08-21T03:25:43;10.43;;;2.30;;
25752;SDS011;13600;50.816;4.416;2022-08-21T03:28:10;6.22;;;2.17;;
25752;SDS011;13600;50.816;4.416;2022-08-21T03:30:38;8.57;;;2.40;;
25752;SDS011;13600;50.816;4.416;2022-08-21T03:33:07;10.13;;;2.83;;
25752;SDS011;13600;50.816;4.416;2022-08-21T03:35:33;7.72;;;2.40;;
25752;SDS011;13600;50.816;4.416;2022-08-21T03:37:59;9.55;;;2.30;;
25752;SDS011;13600;50.816;4.416;2022-08-21T03:40:24;7.88;;;2.00;;
25752;SDS011;13600;50.816;4.416;2022-08-21T03:42:50;9.88;;;2.83;;
25752;SDS011;13600;50.816;4.416;2022-08-21T03:45:17;6.28;;;2.40;;
25752;SDS011;13600;50.816;4.416;2022-08-21T03:47:54;8.57;;;2.20;;
25752;SDS011;13600;50.816;4.416;2022-08-21T03:50:25;10.15;;;2.50;;
25752;SDS011;13600;50.816;4.416;2022-08-21T03:52:52;7.45;;;2.78;;
25752;SDS011;13600;50.816;4.416;2022-08-21T03:55:18;10.65;;;2.53;;
25752;SDS011;13600;50.816;4.416;2022-08-21T03:57:43;10.48;;;2.40;;
25752;SDS011;13600;50.816;4.416;2022-08-21T04:00:09;10.25;;;2.50;;
25752;SDS011;13600;50.816;4.416;2022-08-21T04:02:37;14.88;;;2.88;;
25752;SDS011;13600;50.816;4.416;2022-08-21T04:05:03;9.13;;;2.17;;
25752;SDS011;13600;50.816;4.416;2022-08-21T04:07:29;7.95;;;2.10;;
25752;SDS011;13600;50.816;4.416;2022-08-21T04:09:55;11.52;;;2.92;;
25752;SDS011;13600;50.816;4.416;2022-08-21T04:12:21;7.90;;;2.40;;
25752;SDS011;13600;50.816;4.416;2022-08-21T04:14:46;9.15;;;2.42;;
25752;SDS011;13600;50.816;4.416;2022-08-21T04:17:12;8.65;;;2.20;;
25752;SDS011;13600;50.816;4.416;2022-08-21T04:19:38;9.00;;;2.50;;
25752;SDS011;13600;50.816;4.416;2022-08-21T04:22:03;4.38;;;1.83;;
25752;SDS011;13600;50.816;4.416;2022-08-21T04:24:29;11.57;;;2.88;;
25752;SDS011;13600;50.816;4.416;2022-08-21T04:26:55;8.18;;;2.25;;
25752;SDS011;13600;50.816;4.416;2022-08-21T04:29:20;7.47;;;2.00;;
25752;SDS011;13600;50.816;4.416;2022-08-21T04:31:46;8.77;;;2.15;;
25752;SDS011;13600;50.816;4.416;2022-08-21T04:34:12;10.52;;;2.17;;
25752;SDS011;13600;50.816;4.416;2022-08-21T04:36:38;7.57;;;2.05;;
25752;SDS011;13600;50.816;4.416;2022-08-21T04:39:04;10.75;;;2.53;;
25752;SDS011;13600;50.816;4.416;2022-08-21T04:41:30;10.45;;;2.17;;
25752;SDS011;13600;50.816;4.416;2022-08-21T04:43:56;6.60;;;2.08;;
25752;SDS011;13600;50.816;4.416;2022-08-21T04:46:23;8.48;;;2.05;;
25752;SDS011;13600;50.816;4.416;2022-08-21T04:48:49;8.55;;;2.30;;
25752;SDS011;13600;50.816;4.416;2022-08-21T04:51:23;9.10;;;2.63;;
25752;SDS011;13600;50.816;4.416;2022-08-21T04:54:00;9.52;;;2.33;;
25752;SDS011;13600;50.816;4.416;2022-08-21T04:56:36;11.48;;;2.35;;
25752;SDS011;13600;50.816;4.416;2022-08-21T04:59:06;10.45;;;2.10;;
25752;SDS011;13600;50.816;4.416;2022-08-21T05:01:38;12.85;;;2.65;;
25752;SDS011;13600;50.816;4.416;2022-08-21T05:04:06;9.10;;;2.00;;
25752;SDS011;13600;50.816;4.416;2022-08-21T05:06:34;6.15;;;1.70;;
25752;SDS011;13600;50.816;4.416;2022-08-21T05:09:02;8.40;;;2.30;;
25752;SDS011;13600;50.816;4.416;2022-08-21T05:11:29;10.15;;;2.30;;
25752;SDS011;13600;50.816;4.416;2022-08-21T05:13:55;6.00;;;1.92;;
25752;SDS011;13600;50.816;4.416;2022-08-21T05:16:21;9.25;;;2.30;;
25752;SDS011;13600;50.816;4.416;2022-08-21T05:18:47;8.57;;;2.38;;
25752;SDS011;13600;50.816;4.416;2022-08-21T05:21:13;8.27;;;1.95;;
25752;SDS011;13600;50.816;4.416;2022-08-21T05:23:40;12.30;;;2.35;;
25752;SDS011;13600;50.816;4.416;2022-08-21T05:26:05;6.97;;;2.20;;
25752;SDS011;13600;50.816;4.416;2022-08-21T05:28:31;6.75;;;1.98;;
25752;SDS011;13600;50.816;4.416;2022-08-21T05:30:57;11.30;;;2.22;;
25752;SDS011;13600;50.816;4.416;2022-08-21T05:33:23;5.05;;;2.13;;
25752;SDS011;13600;50.816;4.416;2022-08-21T05:35:52;7.63;;;2.40;;
25752;SDS011;13600;50.816;4.416;2022-08-21T05:38:21;8.43;;;2.38;;
25752;SDS011;13600;50.816;4.416;2022-08-21T05:40:48;7.13;;;2.10;;
25752;SDS011;13600;50.816;4.416;2022-08-21T05:43:14;8.35;;;2.17;;
25752;SDS011;13600;50.816;4.416;2022-08-21T05:45:41;5.20;;;1.80;;
25752;SDS011;13600;50.816;4.416;2022-08-21T05:48:07;8.55;;;2.20;;
25752;SDS011;13600;50.816;4.416;2022-08-21T05:50:34;7.55;;;2.60;;
25752;SDS011;13600;50.816;4.416;2022-08-21T05:53:00;10.80;;;2.45;;
25752;SDS011;13600;50.816;4.416;2022-08-21T05:55:26;7.78;;;2.03;;
25752;SDS011;13600;50.816;4.416;2022-08-21T05:57:51;11.30;;;2.58;;
25752;SDS011;13600;50.816;4.416;2022-08-21T06:00:17;13.07;;;2.38;;
25752;SDS011;13600;50.816;4.416;2022-08-21T06:02:43;8.15;;;2.33;;
25752;SDS011;13600;50.816;4.416;2022-08-21T06:05:09;8.93;;;2.50;;
25752;SDS011;13600;50.816;4.416;2022-08-21T06:07:36;8.80;;;1.90;;
25752;SDS011;13600;50.816;4.416;2022-08-21T06:10:02;8.15;;;2.20;;
25752;SDS011;13600;50.816;4.416;2022-08-21T06:12:28;9.68;;;2.20;;
25752;SDS011;13600;50.816;4.416;2022-08-21T06:14:53;9.88;;;1.92;;
25752;SDS011;13600;50.816;4.416;2022-08-21T06:17:19;11.32;;;2.20;;
25752;SDS011;13600;50.816;4.416;2022-08-21T06:19:50;9.85;;;1.73;;
25752;SDS011;13600;50.816;4.416;2022-08-21T06:22:19;10.23;;;2.20;;
25752;SDS011;13600;50.816;4.416;2022-08-21T06:24:45;8.25;;;1.92;;
25752;SDS011;13600;50.816;4.416;2022-08-21T06:27:11;9.38;;;1.92;;
25752;SDS011;13600;50.816;4.416;2022-08-21T06:29:37;6.72;;;1.83;;
25752;SDS011;13600;50.816;4.416;2022-08-21T06:32:03;9.65;;;1.60;;
25752;SDS011;13600;50.816;4.416;2022-08-21T06:34:32;9.43;;;1.92;;
25752;SDS011;13600;50.816;4.416;2022-08-21T06:37:04;13.13;;;2.08;;
25752;SDS011;13600;50.816;4.416;2022-08-21T06:39:30;11.25;;;1.77;;
25752;SDS011;13600;50.816;4.416;2022-08-21T06:41:56;9.20;;;1.63;;
25752;SDS011;13600;50.816;4.416;2022-08-21T06:44:22;7.60;;;1.65;;
25752;SDS011;13600;50.816;4.416;2022-08-21T06:46:47;8.52;;;1.58;;
25752;SDS011;13600;50.816;4.416;2022-08-21T06:49:13;9.75;;;2.03;;
25752;SDS011;13600;50.816;4.416;2022-08-21T06:51:39;13.25;;;1.80;;
25752;SDS011;13600;50.816;4.416;2022-08-21T06:54:05;9.20;;;1.60;;
25752;SDS011;13600;50.816;4.416;2022-08-21T06:56:31;8.93;;;2.05;;
25752;SDS011;13600;50.816;4.416;2022-08-21T06:58:58;9.73;;;2.15;;
25752;SDS011;13600;50.816;4.416;2022-08-21T07:01:24;7.03;;;1.90;;
25752;SDS011;13600;50.816;4.416;2022-08-21T07:03:51;7.40;;;1.40;;
25752;SDS011;13600;50.816;4.416;2022-08-21T07:06:17;12.43;;;1.90;;
25752;SDS011;13600;50.816;4.416;2022-08-21T07:08:43;6.78;;;1.52;;
25752;SDS011;13600;50.816;4.416;2022-08-21T07:11:19;7.93;;;1.85;;
25752;SDS011;13600;50.816;4.416;2022-08-21T07:13:47;10.27;;;1.52;;
25752;SDS011;13600;50.816;4.416;2022-08-21T07:16:17;7.32;;;1.75;;
25752;SDS011;13600;50.816;4.416;2022-08-21T07:18:43;9.20;;;1.60;;
25752;SDS011;13600;50.816;4.416;2022-08-21T07:21:09;8.32;;;1.70;;
25752;SDS011;13600;50.816;4.416;2022-08-21T07:23:37;7.40;;;1.50;;
25752;SDS011;13600;50.816;4.416;2022-08-21T07:26:08;10.40;;;1.67;;
25752;SDS011;13600;50.816;4.416;2022-08-21T07:28:35;11.15;;;2.10;;
25752;SDS011;13600;50.816;4.416;2022-08-21T07:31:01;9.90;;;1.90;;
25752;SDS011;13600;50.816;4.416;2022-08-21T07:33:29;11.00;;;1.95;;
25752;SDS011;13600;50.816;4.416;2022-08-21T07:35:58;8.13;;;1.67;;
25752;SDS011;13600;50.816;4.416;2022-08-21T07:38:24;9.57;;;1.70;;
25752;SDS011;13600;50.816;4.416;2022-08-21T07:40:51;8.43;;;2.03;;
25752;SDS011;13600;50.816;4.416;2022-08-21T07:43:19;12.55;;;1.90;;
25752;SDS011;13600;50.816;4.416;2022-08-21T07:45:46;10.05;;;1.92;;
25752;SDS011;13600;50.816;4.416;2022-08-21T07:48:13;6.53;;;1.63;;
25752;SDS011;13600;50.816;4.416;2022-08-21T07:50:39;9.95;;;2.17;;
25752;SDS011;13600;50.816;4.416;2022-08-21T07:53:05;9.63;;;1.80;;
25752;SDS011;13600;50.816;4.416;2022-08-21T07:55:32;8.40;;;1.70;;
25752;SDS011;13600;50.816;4.416;2022-08-21T07:57:58;6.10;;;1.60;;
25752;SDS011;13600;50.816;4.416;2022-08-21T08:00:24;9.52;;;1.90;;
25752;SDS011;13600;50.816;4.416;2022-08-21T08:02:52;9.18;;;1.75;;
25752;SDS011;13600;50.816;4.416;2022-08-21T08:05:20;5.93;;;1.80;;
25752;SDS011;13600;50.816;4.416;2022-08-21T08:07:48;8.95;;;1.88;;
25752;SDS011;13600;50.816;4.416;2022-08-21T08:10:14;9.48;;;2.00;;
25752;SDS011;13600;50.816;4.416;2022-08-21T08:12:41;9.68;;;1.50;;
25752;SDS011;13600;50.816;4.416;2022-08-21T08:15:10;7.82;;;1.60;;
25752;SDS011;13600;50.816;4.416;2022-08-21T08:17:46;8.48;;;1.95;;
25752;SDS011;13600;50.816;4.416;2022-08-21T08:20:13;10.70;;;1.98;;
25752;SDS011;13600;50.816;4.416;2022-08-21T08:22:40;6.93;;;1.80;;
25752;SDS011;13600;50.816;4.416;2022-08-21T08:25:08;11.98;;;1.95;;
25752;SDS011;13600;50.816;4.416;2022-08-21T08:27:35;11.13;;;2.05;;
25752;SDS011;13600;50.816;4.416;2022-08-21T08:30:01;7.78;;;1.45;;
25752;SDS011;13600;50.816;4.416;2022-08-21T08:32:26;9.18;;;1.67;;
25752;SDS011;13600;50.816;4.416;2022-08-21T08:34:52;8.48;;;1.73;;
25752;SDS011;13600;50.816;4.416;2022-08-21T08:37:18;7.80;;;1.83;;
25752;SDS011;13600;50.816;4.416;2022-08-21T08:39:45;8.82;;;1.70;;
25752;SDS011;13600;50.816;4.416;2022-08-21T08:42:12;8.00;;;1.90;;
25752;SDS011;13600;50.816;4.416;2022-08-21T08:44:59;12.00;;;1.85;;
25752;SDS011;13600;50.816;4.416;2022-08-21T08:47:32;10.77;;;1.80;;
25752;SDS011;13600;50.816;4.416;2022-08-21T08:50:10;8.02;;;1.58;;
25752;SDS011;13600;50.816;4.416;2022-08-21T08:53:04;7.63;;;1.77;;
25752;SDS011;13600;50.816;4.416;2022-08-21T08:55:38;6.95;;;1.85;;
25752;SDS011;13600;50.816;4.416;2022-08-21T08:58:05;11.27;;;1.83;;
25752;SDS011;13600;50.816;4.416;2022-08-21T09:00:32;5.65;;;1.83;;
25752;SDS011;13600;50.816;4.416;2022-08-21T09:02:59;9.85;;;2.05;;
25752;SDS011;13600;50.816;4.416;2022-08-21T09:05:48;11.80;;;2.05;;
25752;SDS011;13600;50.816;4.416;2022-08-21T09:17:04;9.52;;;2.00;;
25752;SDS011;13600;50.816;4.416;2022-08-21T09:19:46;7.18;;;1.80;;
25752;SDS011;13600;50.816;4.416;2022-08-21T09:25:12;8.40;;;1.77;;
25752;SDS011;13600;50.816;4.416;2022-08-21T09:27:46;7.85;;;1.67;;
25752;SDS011;13600;50.816;4.416;2022-08-21T09:30:12;7.93;;;1.90;;
25752;SDS011;13600;50.816;4.416;2022-08-21T09:32:38;6.95;;;1.88;;
25752;SDS011;13600;50.816;4.416;2022-08-21T09:35:12;6.22;;;1.67;;
25752;SDS011;13600;50.816;4.416;2022-08-21T09:37:53;9.55;;;1.77;;
25752;SDS011;13600;50.816;4.416;2022-08-21T09:40:33;7.45;;;1.70;;
25752;SDS011;13600;50.816;4.416;2022-08-21T09:43:18;6.60;;;1.40;;
25752;SDS011;13600;50.816;4.416;2022-08-21T09:46:19;5.78;;;1.60;;
25752;SDS011;13600;50.816;4.416;2022-08-21T09:48:47;8.68;;;2.00;;
25752;SDS011;13600;50.816;4.416;2022-08-21T09:51:17;6.78;;;1.70;;
25752;SDS011;13600;50.816;4.416;2022-08-21T09:53:45;7.82;;;1.65;;
25752;SDS011;13600;50.816;4.416;2022-08-21T09:56:17;5.95;;;1.60;;
25752;SDS011;13600;50.816;4.416;2022-08-21T09:59:30;9.50;;;1.88;;
25752;SDS011;13600;50.816;4.416;2022-08-21T10:01:59;8.57;;;1.65;;
25752;SDS011;13600;50.816;4.416;2022-08-21T10:07:13;8.55;;;1.73;;
25752;SDS011;13600;50.816;4.416;2022-08-21T10:09:39;10.55;;;2.13;;
25752;SDS011;13600;50.816;4.416;2022-08-21T10:12:09;9.90;;;1.98;;
25752;SDS011;13600;50.816;4.416;2022-08-21T10:14:51;9.07;;;2.00;;
25752;SDS011;13600;50.816;4.416;2022-08-21T10:20:04;8.02;;;1.98;;
25752;SDS011;13600;50.816;4.416;2022-08-21T10:22:43;9.60;;;2.17;;
25752;SDS011;13600;50.816;4.416;2022-08-21T10:25:42;8.77;;;1.95;;
25752;SDS011;13600;50.816;4.416;2022-08-21T10:31:13;7.75;;;1.63;;
25752;SDS011;13600;50.816;4.416;2022-08-21T10:36:34;8.52;;;1.67;;
25752;SDS011;13600;50.816;4.416;2022-08-21T10:55:40;8.50;;;2.28;;
25752;SDS011;13600;50.816;4.416;2022-08-21T10:58:11;9.73;;;2.13;;
25752;SDS011;13600;50.816;4.416;2022-08-21T11:00:47;8.32;;;1.95;;
25752;SDS011;13600;50.816;4.416;2022-08-21T11:03:31;8.60;;;2.08;;
25752;SDS011;13600;50.816;4.416;2022-08-21T11:06:05;11.95;;;2.30;;
25752;SDS011;13600;50.816;4.416;2022-08-21T11:08:40;12.85;;;5.82;;
25752;SDS011;13600;50.816;4.416;2022-08-21T11:11:10;11.73;;;2.08;;
25752;SDS011;13600;50.816;4.416;2022-08-21T11:21:53;7.28;;;2.00;;
25752;SDS011;13600;50.816;4.416;2022-08-21T11:24:30;9.07;;;1.98;;
25752;SDS011;13600;50.816;4.416;2022-08-21T11:29:40;7.90;;;2.00;;
25752;SDS011;13600;50.816;4.416;2022-08-21T11:40:31;10.55;;;2.25;;
25752;SDS011;13600;50.816;4.416;2022-08-21T11:45:53;10.02;;;2.00;;
25752;SDS011;13600;50.816;4.416;2022-08-21T11:51:05;7.93;;;1.80;;
25752;SDS011;13600;50.816;4.416;2022-08-21T11:56:17;10.02;;;1.90;;
25752;SDS011;13600;50.816;4.416;2022-08-21T11:58:51;8.32;;;2.08;;
25752;SDS011;13600;50.816;4.416;2022-08-21T12:01:27;8.85;;;1.73;;
25752;SDS011;13600;50.816;4.416;2022-08-21T12:04:26;8.82;;;2.00;;
25752;SDS011;13600;50.816;4.416;2022-08-21T12:06:55;9.10;;;2.30;;
25752;SDS011;13600;50.816;4.416;2022-08-21T12:12:04;9.70;;;2.42;;
25752;SDS011;13600;50.816;4.416;2022-08-21T12:15:02;9.45;;;1.92;;
25752;SDS011;13600;50.816;4.416;2022-08-21T12:17:36;9.07;;;2.00;;
25752;SDS011;13600;50.816;4.416;2022-08-21T12:26:18;13.00;;;2.13;;
25752;SDS011;13600;50.816;4.416;2022-08-21T12:28:36;10.70;;;2.33;;
25752;SDS011;13600;50.816;4.416;2022-08-21T12:31:03;9.30;;;1.88;;
25752;SDS011;13600;50.816;4.416;2022-08-21T12:33:37;8.40;;;2.00;;
25752;SDS011;13600;50.816;4.416;2022-08-21T12:36:09;7.63;;;2.00;;
25752;SDS011;13600;50.816;4.416;2022-08-21T12:38:56;9.90;;;1.80;;
25752;SDS011;13600;50.816;4.416;2022-08-21T12:41:40;7.60;;;1.88;;
25752;SDS011;13600;50.816;4.416;2022-08-21T12:44:16;6.53;;;1.67;;
25752;SDS011;13600;50.816;4.416;2022-08-21T12:46:57;8.50;;;1.75;;
25752;SDS011;13600;50.816;4.416;2022-08-21T12:49:32;7.40;;;1.90;;
25752;SDS011;13600;50.816;4.416;2022-08-21T12:52:02;8.45;;;1.63;;
25752;SDS011;13600;50.816;4.416;2022-08-21T12:54:42;8.98;;;1.95;;
25752;SDS011;13600;50.816;4.416;2022-08-21T12:57:16;9.23;;;2.22;;
25752;SDS011;13600;50.816;4.416;2022-08-21T12:59:44;7.82;;;1.70;;
25752;SDS011;13600;50.816;4.416;2022-08-21T13:02:52;6.88;;;1.65;;
25752;SDS011;13600;50.816;4.416;2022-08-21T13:05:05;8.10;;;1.67;;
25752;SDS011;13600;50.816;4.416;2022-08-21T13:07:33;8.57;;;1.77;;
25752;SDS011;13600;50.816;4.416;2022-08-21T13:10:22;9.30;;;2.08;;
25752;SDS011;13600;50.816;4.416;2022-08-21T13:12:55;10.15;;;2.00;;
25752;SDS011;13600;50.816;4.416;2022-08-21T13:15:26;10.10;;;1.83;;
25752;SDS011;13600;50.816;4.416;2022-08-21T13:17:56;8.73;;;1.92;;
25752;SDS011;13600;50.816;4.416;2022-08-21T13:20:39;9.57;;;2.17;;
25752;SDS011;13600;50.816;4.416;2022-08-21T13:23:23;7.43;;;1.80;;
25752;SDS011;13600;50.816;4.416;2022-08-21T13:25:51;8.60;;;2.05;;
25752;SDS011;13600;50.816;4.416;2022-08-21T13:28:17;8.23;;;1.60;;
25752;SDS011;13600;50.816;4.416;2022-08-21T13:30:44;10.82;;;2.22;;
25752;SDS011;13600;50.816;4.416;2022-08-21T13:33:13;7.82;;;1.90;;
25752;SDS011;13600;50.816;4.416;2022-08-21T13:38:21;10.57;;;2.13;;
25752;SDS011;13600;50.816;4.416;2022-08-21T13:40:53;7.28;;;2.15;;
25752;SDS011;13600;50.816;4.416;2022-08-21T13:43:24;11.18;;;2.25;;
25752;SDS011;13600;50.816;4.416;2022-08-21T13:45:53;8.80;;;2.10;;
25752;SDS011;13600;50.816;4.416;2022-08-21T13:48:21;10.70;;;2.05;;
25752;SDS011;13600;50.816;4.416;2022-08-21T13:50:50;8.10;;;1.90;;
25752;SDS011;13600;50.816;4.416;2022-08-21T13:55:46;12.55;;;2.00;;
25752;SDS011;13600;50.816;4.416;2022-08-21T13:58:12;11.50;;;2.33;;
25752;SDS011;13600;50.816;4.416;2022-08-21T14:00:53;9.27;;;1.85;;
25752;SDS011;13600;50.816;4.416;2022-08-21T14:03:27;9.50;;;1.90;;
25752;SDS011;13600;50.816;4.416;2022-08-21T14:06:17;13.20;;;2.63;;
25752;SDS011;13600;50.816;4.416;2022-08-21T14:08:50;11.10;;;2.08;;
25752;SDS011;13600;50.816;4.416;2022-08-21T14:11:19;11.38;;;1.85;;
25752;SDS011;13600;50.816;4.416;2022-08-21T14:13:47;12.15;;;2.40;;
25752;SDS011;13600;50.816;4.416;2022-08-21T14:16:23;11.02;;;2.15;;
25752;SDS011;13600;50.816;4.416;2022-08-21T14:19:07;9.90;;;2.20;;
25752;SDS011;13600;50.816;4.416;2022-08-21T14:21:41;11.10;;;2.00;;
25752;SDS011;13600;50.816;4.416;2022-08-21T14:24:26;8.40;;;1.83;;
25752;SDS011;13600;50.816;4.416;2022-08-21T14:27:12;12.45;;;2.17;;
25752;SDS011;13600;50.816;4.416;2022-08-21T14:29:43;10.73;;;2.10;;
25752;SDS011;13600;50.816;4.416;2022-08-21T14:32:16;9.57;;;2.20;;
25752;SDS011;13600;50.816;4.416;2022-08-21T14:34:45;11.48;;;2.47;;
25752;SDS011;13600;50.816;4.416;2022-08-21T14:37:11;12.55;;;2.08;;
25752;SDS011;13600;50.816;4.416;2022-08-21T14:39:38;13.52;;;2.30;;
25752;SDS011;13600;50.816;4.416;2022-08-21T14:42:04;9.95;;;1.92;;
25752;SDS011;13600;50.816;4.416;2022-08-21T14:44:29;10.27;;;1.80;;
25752;SDS011;13600;50.816;4.416;2022-08-21T14:46:58;10.77;;;2.05;;
25752;SDS011;13600;50.816;4.416;2022-08-21T14:49:24;10.48;;;2.28;;
25752;SDS011;13600;50.816;4.416;2022-08-21T14:51:52;9.23;;;2.17;;
25752;SDS011;13600;50.816;4.416;2022-08-21T14:54:22;8.75;;;2.28;;
25752;SDS011;13600;50.816;4.416;2022-08-21T14:56:54;13.60;;;2.17;;
25752;SDS011;13600;50.816;4.416;2022-08-21T14:59:21;8.73;;;2.00;;
25752;SDS011;13600;50.816;4.416;2022-08-21T15:01:48;8.63;;;2.00;;
25752;SDS011;13600;50.816;4.416;2022-08-21T15:04:14;10.02;;;2.53;;
25752;SDS011;13600;50.816;4.416;2022-08-21T15:06:40;11.20;;;2.50;;
25752;SDS011;13600;50.816;4.416;2022-08-21T15:09:05;11.68;;;2.60;;
25752;SDS011;13600;50.816;4.416;2022-08-21T15:11:31;7.15;;;2.05;;
25752;SDS011;13600;50.816;4.416;2022-08-21T15:13:59;16.77;;;2.00;;
25752;SDS011;13600;50.816;4.416;2022-08-21T15:16:27;13.50;;;2.40;;
25752;SDS011;13600;50.816;4.416;2022-08-21T15:18:53;8.65;;;2.13;;
25752;SDS011;13600;50.816;4.416;2022-08-21T15:21:19;13.48;;;2.15;;
25752;SDS011;13600;50.816;4.416;2022-08-21T15:23:45;11.68;;;2.25;;
25752;SDS011;13600;50.816;4.416;2022-08-21T15:26:10;13.05;;;2.45;;
25752;SDS011;13600;50.816;4.416;2022-08-21T15:28:37;9.48;;;2.25;;
25752;SDS011;13600;50.816;4.416;2022-08-21T15:31:03;12.60;;;2.15;;
25752;SDS011;13600;50.816;4.416;2022-08-21T15:33:29;12.27;;;2.58;;
25752;SDS011;13600;50.816;4.416;2022-08-21T15:35:55;14.50;;;2.40;;
25752;SDS011;13600;50.816;4.416;2022-08-21T15:38:21;12.15;;;2.13;;
25752;SDS011;13600;50.816;4.416;2022-08-21T15:40:47;10.25;;;2.17;;
25752;SDS011;13600;50.816;4.416;2022-08-21T15:43:23;8.75;;;2.00;;
25752;SDS011;13600;50.816;4.416;2022-08-21T15:45:51;10.30;;;2.20;;
25752;SDS011;13600;50.816;4.416;2022-08-21T15:48:17;9.25;;;2.17;;
25752;SDS011;13600;50.816;4.416;2022-08-21T15:50:44;13.23;;;2.33;;
25752;SDS011;13600;50.816;4.416;2022-08-21T15:53:10;13.73;;;2.25;;
25752;SDS011;13600;50.816;4.416;2022-08-21T15:55:36;13.32;;;2.38;;
25752;SDS011;13600;50.816;4.416;2022-08-21T15:58:03;13.40;;;2.50;;
25752;SDS011;13600;50.816;4.416;2022-08-21T16:00:30;11.30;;;2.40;;
25752;SDS011;13600;50.816;4.416;2022-08-21T16:02:59;12.25;;;2.15;;
25752;SDS011;13600;50.816;4.416;2022-08-21T16:05:27;10.02;;;2.05;;
25752;SDS011;13600;50.816;4.416;2022-08-21T16:07:53;11.65;;;2.55;;
25752;SDS011;13600;50.816;4.416;2022-08-21T16:10:20;13.98;;;2.50;;
25752;SDS011;13600;50.816;4.416;2022-08-21T16:12:52;11.15;;;2.65;;
25752;SDS011;13600;50.816;4.416;2022-08-21T16:15:22;11.60;;;2.33;;
25752;SDS011;13600;50.816;4.416;2022-08-21T16:17:48;13.10;;;2.75;;
25752;SDS011;13600;50.816;4.416;2022-08-21T16:20:17;9.73;;;2.03;;